sensor_id;sensor_type;location;lat;lon;timestamp;pressure;altitude;pressure_sealevel;temperature;humidity
50852;BME280;43953;45.508;-122.806;2023-04-27T00:00:25;101073.38;;;26.22;33.15
50852;BME280;43953;45.508;-122.806;2023-04-27T00:00:57;101075.31;;;26.21;33.25
50852;BME280;43953;45.508;-122.806;2023-04-27T00:01:29;101076.94;;;26.22;33.09
50852;BME280;43953;45.508;-122.806;2023-04-27T00:02:00;101073.06;;;26.23;33.54
50852;BME280;43953;45.508;-122.806;2023-04-27T00:02:33;101074.19;;;26.22;33.47
50852;BME280;43953;45.508;-122.806;2023-04-27T00:03:04;101079.72;;;26.22;33.81
50852;BME280;43953;45.508;-122.806;2023-04-27T00:03:38;101075.81;;;26.23;33.63
50852;BME280;43953;45.508;-122.806;2023-04-27T00:04:10;101064.78;;;26.23;33.71
50852;BME280;43953;45.508;-122.806;2023-04-27T00:04:44;101069.47;;;26.23;34.01
50852;BME280;43953;45.508;-122.806;2023-04-27T00:05:16;101070.28;;;26.23;33.74
50852;BME280;43953;45.508;-122.806;2023-04-27T00:05:47;101073.06;;;26.23;34.14
50852;BME280;43953;45.508;-122.806;2023-04-27T00:06:19;101071.94;;;26.24;34.29
50852;BME280;43953;45.508;-122.806;2023-04-27T00:06:51;101071.13;;;26.24;34.31
50852;BME280;43953;45.508;-122.806;2023-04-27T00:07:23;101071.13;;;26.24;34.14
50852;BME280;43953;45.508;-122.806;2023-04-27T00:07:56;101070.00;;;26.25;34.27
50852;BME280;43953;45.508;-122.806;2023-04-27T00:08:28;101066.44;;;26.24;34.16
50852;BME280;43953;45.508;-122.806;2023-04-27T00:08:59;101072.44;;;26.26;34.04
50852;BME280;43953;45.508;-122.806;2023-04-27T00:09:31;101065.28;;;26.25;34.04
50852;BME280;43953;45.508;-122.806;2023-04-27T00:10:03;101069.69;;;26.26;34.48
50852;BME280;43953;45.508;-122.806;2023-04-27T00:10:35;101070.81;;;26.25;33.64
50852;BME280;43953;45.508;-122.806;2023-04-27T00:11:07;101073.56;;;26.25;33.98
50852;BME280;43953;45.508;-122.806;2023-04-27T00:11:39;101072.75;;;26.25;33.71
50852;BME280;43953;45.508;-122.806;2023-04-27T00:12:10;101068.06;;;26.25;34.15
50852;BME280;43953;45.508;-122.806;2023-04-27T00:12:42;101065.28;;;26.25;34.12
50852;BME280;43953;45.508;-122.806;2023-04-27T00:13:14;101069.69;;;26.26;34.15
50852;BME280;43953;45.508;-122.806;2023-04-27T00:13:46;101063.34;;;26.26;33.85
50852;BME280;43953;45.508;-122.806;2023-04-27T00:14:17;101063.34;;;26.26;34.17
50852;BME280;43953;45.508;-122.806;2023-04-27T00:14:51;101062.53;;;26.25;33.86
50852;BME280;43953;45.508;-122.806;2023-04-27T00:15:22;101066.72;;;26.23;33.86
50852;BME280;43953;45.508;-122.806;2023-04-27T00:15:54;101059.25;;;26.23;33.77
50852;BME280;43953;45.508;-122.806;2023-04-27T00:16:26;101063.16;;;26.22;34.01
50852;BME280;43953;45.508;-122.806;2023-04-27T00:16:58;101062.00;;;26.23;33.99
50852;BME280;43953;45.508;-122.806;2023-04-27T00:17:29;101053.72;;;26.23;33.35
50852;BME280;43953;45.508;-122.806;2023-04-27T00:18:01;101063.66;;;26.24;33.79
50852;BME280;43953;45.508;-122.806;2023-04-27T00:18:33;101053.72;;;26.23;33.83
50852;BME280;43953;45.508;-122.806;2023-04-27T00:19:05;101057.63;;;26.22;33.59
50852;BME280;43953;45.508;-122.806;2023-04-27T00:19:37;101055.19;;;26.21;33.80
50852;BME280;43953;45.508;-122.806;2023-04-27T00:20:10;101057.44;;;26.19;33.54
50852;BME280;43953;45.508;-122.806;2023-04-27T00:20:42;101060.00;;;26.15;33.99
50852;BME280;43953;45.508;-122.806;2023-04-27T00:21:14;101058.03;;;26.16;33.98
50852;BME280;43953;45.508;-122.806;2023-04-27T00:21:46;101060.00;;;26.15;33.89
50852;BME280;43953;45.508;-122.806;2023-04-27T00:22:18;101051.72;;;26.15;34.13
50852;BME280;43953;45.508;-122.806;2023-04-27T00:22:49;101058.84;;;26.16;34.18
50852;BME280;43953;45.508;-122.806;2023-04-27T00:23:21;101054.97;;;26.17;34.26
50852;BME280;43953;45.508;-122.806;2023-04-27T00:23:53;101057.72;;;26.17;34.64
50852;BME280;43953;45.508;-122.806;2023-04-27T00:24:25;101054.97;;;26.17;34.33
50852;BME280;43953;45.508;-122.806;2023-04-27T00:24:57;101058.25;;;26.19;34.67
50852;BME280;43953;45.508;-122.806;2023-04-27T00:25:29;101053.84;;;26.18;34.64
50852;BME280;43953;45.508;-122.806;2023-04-27T00:26:01;101055.47;;;26.19;34.30
50852;BME280;43953;45.508;-122.806;2023-04-27T00:26:33;101048.81;;;26.20;34.29
50852;BME280;43953;45.508;-122.806;2023-04-27T00:27:04;101063.16;;;26.22;34.27
50852;BME280;43953;45.508;-122.806;2023-04-27T00:27:37;101056.00;;;26.21;33.88
50852;BME280;43953;45.508;-122.806;2023-04-27T00:28:08;101049.34;;;26.22;33.75
50852;BME280;43953;45.508;-122.806;2023-04-27T00:28:40;101048.81;;;26.20;33.86
50852;BME280;43953;45.508;-122.806;2023-04-27T00:29:12;101056.63;;;26.18;33.79
50852;BME280;43953;45.508;-122.806;2023-04-27T00:29:43;101053.34;;;26.16;33.92
50852;BME280;43953;45.508;-122.806;2023-04-27T00:30:15;101054.47;;;26.15;34.10
50852;BME280;43953;45.508;-122.806;2023-04-27T00:30:47;101046.19;;;26.15;34.27
50852;BME280;43953;45.508;-122.806;2023-04-27T00:31:19;101053.63;;;26.15;33.83
50852;BME280;43953;45.508;-122.806;2023-04-27T00:31:51;101056.38;;;26.15;34.04
50852;BME280;43953;45.508;-122.806;2023-04-27T00:32:25;101050.88;;;26.15;33.63
50852;BME280;43953;45.508;-122.806;2023-04-27T00:32:57;101050.88;;;26.15;33.90
50852;BME280;43953;45.508;-122.806;2023-04-27T00:33:28;101054.75;;;26.14;34.10
50852;BME280;43953;45.508;-122.806;2023-04-27T00:34:00;101048.44;;;26.13;33.99
50852;BME280;43953;45.508;-122.806;2023-04-27T00:34:32;101051.19;;;26.13;33.89
50852;BME280;43953;45.508;-122.806;2023-04-27T00:35:04;101045.16;;;26.11;33.52
50852;BME280;43953;45.508;-122.806;2023-04-27T00:35:36;101045.16;;;26.11;33.86
50852;BME280;43953;45.508;-122.806;2023-04-27T00:36:08;101047.91;;;26.11;33.75
50852;BME280;43953;45.508;-122.806;2023-04-27T00:36:39;101045.16;;;26.11;33.93
50852;BME280;43953;45.508;-122.806;2023-04-27T00:37:11;101042.91;;;26.13;33.55
50852;BME280;43953;45.508;-122.806;2023-04-27T00:37:43;101048.44;;;26.13;33.39
50852;BME280;43953;45.508;-122.806;2023-04-27T00:38:15;101041.78;;;26.14;33.76
50852;BME280;43953;45.508;-122.806;2023-04-27T00:38:47;101046.81;;;26.12;33.64
50852;BME280;43953;45.508;-122.806;2023-04-27T00:39:18;101049.25;;;26.14;33.58
50852;BME280;43953;45.508;-122.806;2023-04-27T00:39:50;101049.25;;;26.14;33.39
50852;BME280;43953;45.508;-122.806;2023-04-27T00:40:22;101048.44;;;26.13;33.64
50852;BME280;43953;45.508;-122.806;2023-04-27T00:41:05;101041.28;;;26.12;33.63
50852;BME280;43953;45.508;-122.806;2023-04-27T00:41:38;101048.44;;;26.13;33.95
50852;BME280;43953;45.508;-122.806;2023-04-27T00:42:10;101048.44;;;26.13;33.75
50852;BME280;43953;45.508;-122.806;2023-04-27T00:42:45;101049.56;;;26.12;33.85
50852;BME280;43953;45.508;-122.806;2023-04-27T00:43:17;101045.97;;;26.12;33.61
50852;BME280;43953;45.508;-122.806;2023-04-27T00:43:48;101041.56;;;26.10;33.65
50852;BME280;43953;45.508;-122.806;2023-04-27T00:44:24;101044.66;;;26.09;33.83
50852;BME280;43953;45.508;-122.806;2023-04-27T00:44:58;101042.19;;;26.07;34.14
50852;BME280;43953;45.508;-122.806;2023-04-27T00:45:30;101049.31;;;26.08;33.72
50852;BME280;43953;45.508;-122.806;2023-04-27T00:46:02;101040.25;;;26.08;33.80
50852;BME280;43953;45.508;-122.806;2023-04-27T00:46:34;101047.41;;;26.09;33.79
50852;BME280;43953;45.508;-122.806;2023-04-27T00:47:06;101049.66;;;26.07;33.64
50852;BME280;43953;45.508;-122.806;2023-04-27T00:47:38;101046.38;;;26.05;33.78
50852;BME280;43953;45.508;-122.806;2023-04-27T00:48:10;101045.56;;;26.04;34.14
50852;BME280;43953;45.508;-122.806;2023-04-27T00:48:43;101042.78;;;26.04;34.23
50852;BME280;43953;45.508;-122.806;2023-04-27T00:49:15;101041.16;;;26.03;34.01
50852;BME280;43953;45.508;-122.806;2023-04-27T00:49:47;101047.50;;;26.04;33.98
50852;BME280;43953;45.508;-122.806;2023-04-27T00:50:27;101047.19;;;26.05;34.00
50852;BME280;43953;45.508;-122.806;2023-04-27T00:50:59;101038.41;;;26.03;34.29
50852;BME280;43953;45.508;-122.806;2023-04-27T00:51:31;101041.97;;;26.04;33.71
50852;BME280;43953;45.508;-122.806;2023-04-27T00:52:03;101042.28;;;26.02;33.98
50852;BME280;43953;45.508;-122.806;2023-04-27T00:52:38;101046.16;;;26.01;33.54
50852;BME280;43953;45.508;-122.806;2023-04-27T00:53:10;101045.16;;;25.97;33.65
50852;BME280;43953;45.508;-122.806;2023-04-27T00:53:42;101049.34;;;25.95;33.87
50852;BME280;43953;45.508;-122.806;2023-04-27T00:54:19;101047.69;;;25.94;34.08
50852;BME280;43953;45.508;-122.806;2023-04-27T00:54:51;101043.28;;;25.93;33.95
50852;BME280;43953;45.508;-122.806;2023-04-27T00:55:23;101046.88;;;25.93;33.91
50852;BME280;43953;45.508;-122.806;2023-04-27T00:55:55;101049.94;;;25.92;34.29
50852;BME280;43953;45.508;-122.806;2023-04-27T00:56:28;101049.94;;;25.92;34.39
50852;BME280;43953;45.508;-122.806;2023-04-27T00:57:02;101056.28;;;25.92;34.66
50852;BME280;43953;45.508;-122.806;2023-04-27T00:57:34;101054.66;;;25.91;34.34
50852;BME280;43953;45.508;-122.806;2023-04-27T00:58:06;101049.94;;;25.92;34.91
50852;BME280;43953;45.508;-122.806;2023-04-27T00:58:38;101051.88;;;25.91;34.92
50852;BME280;43953;45.508;-122.806;2023-04-27T00:59:10;101057.41;;;25.91;34.59
50852;BME280;43953;45.508;-122.806;2023-04-27T00:59:42;101051.88;;;25.91;35.01
50852;BME280;43953;45.508;-122.806;2023-04-27T01:00:14;101045.53;;;25.91;35.10
50852;BME280;43953;45.508;-122.806;2023-04-27T01:00:46;101054.94;;;25.90;34.88
50852;BME280;43953;45.508;-122.806;2023-04-27T01:01:17;101050.84;;;25.87;35.05
50852;BME280;43953;45.508;-122.806;2023-04-27T01:01:51;101057.50;;;25.86;35.10
50852;BME280;43953;45.508;-122.806;2023-04-27T01:02:23;101052.25;;;25.84;35.43
50852;BME280;43953;45.508;-122.806;2023-04-27T01:02:55;101051.75;;;25.82;35.07
50852;BME280;43953;45.508;-122.806;2023-04-27T01:03:27;101059.19;;;25.82;34.50
50852;BME280;43953;45.508;-122.806;2023-04-27T01:04:00;101052.34;;;25.79;34.58
50852;BME280;43953;45.508;-122.806;2023-04-27T01:04:32;101055.91;;;25.80;34.46
50852;BME280;43953;45.508;-122.806;2023-04-27T01:05:04;101057.34;;;25.77;34.54
50852;BME280;43953;45.508;-122.806;2023-04-27T01:05:38;101051.81;;;25.77;34.74
50852;BME280;43953;45.508;-122.806;2023-04-27T01:06:10;101052.91;;;25.76;34.62
50852;BME280;43953;45.508;-122.806;2023-04-27T01:06:42;101054.56;;;25.77;34.57
50852;BME280;43953;45.508;-122.806;2023-04-27T01:07:15;101050.16;;;25.76;34.53
50852;BME280;43953;45.508;-122.806;2023-04-27T01:07:46;101049.34;;;25.76;34.66
50852;BME280;43953;45.508;-122.806;2023-04-27T01:08:18;101052.09;;;25.76;34.55
50852;BME280;43953;45.508;-122.806;2023-04-27T01:08:50;101049.34;;;25.76;34.67
50852;BME280;43953;45.508;-122.806;2023-04-27T01:09:21;101046.91;;;25.74;33.97
50852;BME280;43953;45.508;-122.806;2023-04-27T01:09:53;101052.72;;;25.73;34.23
50852;BME280;43953;45.508;-122.806;2023-04-27T01:10:25;101051.91;;;25.72;33.61
50852;BME280;43953;45.508;-122.806;2023-04-27T01:10:57;101052.22;;;25.71;33.77
50852;BME280;43953;45.508;-122.806;2023-04-27T01:11:28;101055.25;;;25.69;33.71
50852;BME280;43953;45.508;-122.806;2023-04-27T01:12:00;101050.06;;;25.68;33.64
50852;BME280;43953;45.508;-122.806;2023-04-27T01:12:33;101047.59;;;25.66;33.96
50852;BME280;43953;45.508;-122.806;2023-04-27T01:13:05;101058.34;;;25.68;34.28
50852;BME280;43953;45.508;-122.806;2023-04-27T01:13:36;101056.69;;;25.67;34.35
50852;BME280;43953;45.508;-122.806;2023-04-27T01:14:08;101056.69;;;25.67;33.94
50852;BME280;43953;45.508;-122.806;2023-04-27T01:14:40;101049.53;;;25.65;34.15
50852;BME280;43953;45.508;-122.806;2023-04-27T01:15:12;101059.75;;;25.65;34.35
50852;BME280;43953;45.508;-122.806;2023-04-27T01:15:44;101054.25;;;25.65;34.50
50852;BME280;43953;45.508;-122.806;2023-04-27T01:16:18;101057.00;;;25.65;34.27
50852;BME280;43953;45.508;-122.806;2023-04-27T01:16:51;101053.94;;;25.67;34.45
50852;BME280;43953;45.508;-122.806;2023-04-27T01:17:23;101050.34;;;25.66;34.49
50852;BME280;43953;45.508;-122.806;2023-04-27T01:17:58;101051.97;;;25.67;34.60
50852;BME280;43953;45.508;-122.806;2023-04-27T01:18:31;101050.06;;;25.68;34.05
50852;BME280;43953;45.508;-122.806;2023-04-27T01:19:04;101052.50;;;25.69;33.98
50852;BME280;43953;45.508;-122.806;2023-04-27T01:19:37;101052.50;;;25.69;34.13
50852;BME280;43953;45.508;-122.806;2023-04-27T01:20:10;101057.75;;;25.71;34.43
50852;BME280;43953;45.508;-122.806;2023-04-27T01:20:42;101055.25;;;25.69;34.40
50852;BME280;43953;45.508;-122.806;2023-04-27T01:21:15;101058.03;;;25.69;34.38
50852;BME280;43953;45.508;-122.806;2023-04-27T01:21:46;101054.75;;;25.67;34.27
50852;BME280;43953;45.508;-122.806;2023-04-27T01:22:18;101058.63;;;25.66;34.12
50852;BME280;43953;45.508;-122.806;2023-04-27T01:22:50;101055.34;;;25.64;33.78
50852;BME280;43953;45.508;-122.806;2023-04-27T01:23:22;101047.69;;;25.61;33.72
50852;BME280;43953;45.508;-122.806;2023-04-27T01:23:54;101057.09;;;25.60;33.89
50852;BME280;43953;45.508;-122.806;2023-04-27T01:24:26;101058.50;;;25.57;34.10
50852;BME280;43953;45.508;-122.806;2023-04-27T01:24:57;101052.16;;;25.57;34.04
50852;BME280;43953;45.508;-122.806;2023-04-27T01:25:29;101059.09;;;25.54;34.09
50852;BME280;43953;45.508;-122.806;2023-04-27T01:26:01;101063.81;;;25.54;34.31
50852;BME280;43953;45.508;-122.806;2023-04-27T01:26:33;101062.19;;;25.53;34.20
50852;BME280;43953;45.508;-122.806;2023-04-27T01:27:04;101061.34;;;25.52;34.31
50852;BME280;43953;45.508;-122.806;2023-04-27T01:27:36;101062.19;;;25.53;34.52
50852;BME280;43953;45.508;-122.806;2023-04-27T01:28:08;101058.56;;;25.52;34.42
50852;BME280;43953;45.508;-122.806;2023-04-27T01:28:39;101064.09;;;25.52;34.38
50852;BME280;43953;45.508;-122.806;2023-04-27T01:29:11;101064.94;;;25.53;34.42
50852;BME280;43953;45.508;-122.806;2023-04-27T01:29:43;101061.03;;;25.54;34.42
50852;BME280;43953;45.508;-122.806;2023-04-27T01:30:15;101070.13;;;25.54;34.33
50852;BME280;43953;45.508;-122.806;2023-04-27T01:30:47;101061.84;;;25.54;34.20
50852;BME280;43953;45.508;-122.806;2023-04-27T01:31:18;101063.81;;;25.54;34.54
50852;BME280;43953;45.508;-122.806;2023-04-27T01:31:50;101063.00;;;25.53;34.31
50852;BME280;43953;45.508;-122.806;2023-04-27T01:32:22;101062.47;;;25.51;34.25
50852;BME280;43953;45.508;-122.806;2023-04-27T01:32:54;101068.28;;;25.50;33.94
50852;BME280;43953;45.508;-122.806;2023-04-27T01:33:26;101065.00;;;25.48;34.02
50852;BME280;43953;45.508;-122.806;2023-04-27T01:33:58;101059.50;;;25.48;34.35
50852;BME280;43953;45.508;-122.806;2023-04-27T01:34:29;101058.97;;;25.46;34.44
50852;BME280;43953;45.508;-122.806;2023-04-27T01:35:01;101057.84;;;25.47;34.57
50852;BME280;43953;45.508;-122.806;2023-04-27T01:35:33;101057.03;;;25.46;34.46
50852;BME280;43953;45.508;-122.806;2023-04-27T01:36:06;101058.97;;;25.46;34.72
50852;BME280;43953;45.508;-122.806;2023-04-27T01:36:38;101060.91;;;25.45;34.48
50852;BME280;43953;45.508;-122.806;2023-04-27T01:37:10;101057.03;;;25.46;34.78
50852;BME280;43953;45.508;-122.806;2023-04-27T01:37:41;101065.59;;;25.45;34.24
50852;BME280;43953;45.508;-122.806;2023-04-27T01:38:13;101063.34;;;25.47;34.27
50852;BME280;43953;45.508;-122.806;2023-04-27T01:38:45;101063.34;;;25.47;34.19
50852;BME280;43953;45.508;-122.806;2023-04-27T01:39:16;101068.06;;;25.46;34.44
50852;BME280;43953;45.508;-122.806;2023-04-27T01:39:48;101060.09;;;25.45;34.65
50852;BME280;43953;45.508;-122.806;2023-04-27T01:40:20;101066.44;;;25.45;34.39
50852;BME280;43953;45.508;-122.806;2023-04-27T01:40:52;101062.84;;;25.45;34.51
50852;BME280;43953;45.508;-122.806;2023-04-27T01:41:25;101059.28;;;25.44;34.21
50852;BME280;43953;45.508;-122.806;2023-04-27T01:41:57;101056.81;;;25.42;34.61
50852;BME280;43953;45.508;-122.806;2023-04-27T01:42:29;101063.13;;;25.43;34.21
50852;BME280;43953;45.508;-122.806;2023-04-27T01:43:00;101057.94;;;25.41;34.45
50852;BME280;43953;45.508;-122.806;2023-04-27T01:43:32;101059.03;;;25.40;34.74
50852;BME280;43953;45.508;-122.806;2023-04-27T01:44:04;101060.50;;;25.38;34.25
50852;BME280;43953;45.508;-122.806;2023-04-27T01:44:36;101049.75;;;25.36;33.82
50852;BME280;43953;45.508;-122.806;2023-04-27T01:45:09;101055.53;;;25.35;33.75
50852;BME280;43953;45.508;-122.806;2023-04-27T01:45:41;101057.00;;;25.32;34.11
50852;BME280;43953;45.508;-122.806;2023-04-27T01:46:13;101060.03;;;25.31;33.88
50852;BME280;43953;45.508;-122.806;2023-04-27T01:46:45;101061.44;;;25.28;34.02
50852;BME280;43953;45.508;-122.806;2023-04-27T01:47:17;101058.19;;;25.26;33.88
50852;BME280;43953;45.508;-122.806;2023-04-27T01:47:52;101064.00;;;25.25;33.99
50852;BME280;43953;45.508;-122.806;2023-04-27T01:48:23;101060.41;;;25.24;33.91
50852;BME280;43953;45.508;-122.806;2023-04-27T01:48:55;101055.50;;;25.21;34.50
50852;BME280;43953;45.508;-122.806;2023-04-27T01:49:27;101062.13;;;25.20;34.05
50852;BME280;43953;45.508;-122.806;2023-04-27T01:49:58;101058.53;;;25.19;34.26
50852;BME280;43953;45.508;-122.806;2023-04-27T01:50:31;101057.72;;;25.19;34.77
50852;BME280;43953;45.508;-122.806;2023-04-27T01:51:02;101060.50;;;25.19;34.76
50852;BME280;43953;45.508;-122.806;2023-04-27T01:51:34;101063.25;;;25.19;34.40
50852;BME280;43953;45.508;-122.806;2023-04-27T01:52:06;101055.56;;;25.16;34.60
50852;BME280;43953;45.508;-122.806;2023-04-27T01:52:38;101054.44;;;25.17;34.42
50852;BME280;43953;45.508;-122.806;2023-04-27T01:53:09;101058.34;;;25.16;34.46
50852;BME280;43953;45.508;-122.806;2023-04-27T01:53:41;101061.41;;;25.14;34.37
50852;BME280;43953;45.508;-122.806;2023-04-27T01:54:13;101057.28;;;25.12;34.19
50852;BME280;43953;45.508;-122.806;2023-04-27T01:54:45;101056.47;;;25.11;34.60
50852;BME280;43953;45.508;-122.806;2023-04-27T01:55:17;101056.75;;;25.10;34.33
50852;BME280;43953;45.508;-122.806;2023-04-27T01:55:49;101055.94;;;25.09;34.59
50852;BME280;43953;45.508;-122.806;2023-04-27T01:56:20;101052.34;;;25.09;34.47
50852;BME280;43953;45.508;-122.806;2023-04-27T01:56:52;101050.69;;;25.08;34.77
50852;BME280;43953;45.508;-122.806;2023-04-27T01:57:24;101054.59;;;25.07;34.63
50852;BME280;43953;45.508;-122.806;2023-04-27T01:57:56;101053.47;;;25.08;34.58
50852;BME280;43953;45.508;-122.806;2023-04-27T01:58:28;101052.63;;;25.07;34.97
50852;BME280;43953;45.508;-122.806;2023-04-27T01:59:00;101049.88;;;25.07;34.89
50852;BME280;43953;45.508;-122.806;2023-04-27T01:59:32;101055.41;;;25.07;35.12
50852;BME280;43953;45.508;-122.806;2023-04-27T02:00:04;101047.94;;;25.08;35.02
50852;BME280;43953;45.508;-122.806;2023-04-27T02:00:36;101056.22;;;25.08;34.98
50852;BME280;43953;45.508;-122.806;2023-04-27T02:01:08;101058.16;;;25.07;34.82
50852;BME280;43953;45.508;-122.806;2023-04-27T02:01:40;101058.16;;;25.07;35.06
50852;BME280;43953;45.508;-122.806;2023-04-27T02:02:11;101058.47;;;25.06;34.69
50852;BME280;43953;45.508;-122.806;2023-04-27T02:02:43;101054.06;;;25.05;34.71
50852;BME280;43953;45.508;-122.806;2023-04-27T02:03:15;101048.03;;;25.03;35.13
50852;BME280;43953;45.508;-122.806;2023-04-27T02:03:47;101046.91;;;25.04;35.18
50852;BME280;43953;45.508;-122.806;2023-04-27T02:04:19;101046.91;;;25.04;34.82
50852;BME280;43953;45.508;-122.806;2023-04-27T02:04:51;101059.06;;;25.03;34.84
50852;BME280;43953;45.508;-122.806;2023-04-27T02:05:23;101051.91;;;25.02;35.14
50852;BME280;43953;45.508;-122.806;2023-04-27T02:05:55;101047.78;;;24.99;34.80
50852;BME280;43953;45.508;-122.806;2023-04-27T02:06:27;101046.97;;;24.98;34.75
50852;BME280;43953;45.508;-122.806;2023-04-27T02:06:58;101057.50;;;24.96;34.88
50852;BME280;43953;45.508;-122.806;2023-04-27T02:07:30;101049.25;;;24.96;34.76
50852;BME280;43953;45.508;-122.806;2023-04-27T02:08:02;101054.22;;;24.94;34.96
50852;BME280;43953;45.508;-122.806;2023-04-27T02:08:34;101055.03;;;24.95;34.87
50852;BME280;43953;45.508;-122.806;2023-04-27T02:09:06;101056.16;;;24.94;35.30
50852;BME280;43953;45.508;-122.806;2023-04-27T02:09:38;101048.19;;;24.92;35.32
50852;BME280;43953;45.508;-122.806;2023-04-27T02:10:09;101047.66;;;24.90;35.22
50852;BME280;43953;45.508;-122.806;2023-04-27T02:10:41;101046.00;;;24.89;35.16
50852;BME280;43953;45.508;-122.806;2023-04-27T02:11:13;101049.91;;;24.88;35.31
50852;BME280;43953;45.508;-122.806;2023-04-27T02:11:45;101045.47;;;24.87;34.92
50852;BME280;43953;45.508;-122.806;2023-04-27T02:12:17;101048.56;;;24.86;35.29
50852;BME280;43953;45.508;-122.806;2023-04-27T02:12:48;101046.06;;;24.84;35.39
50852;BME280;43953;45.508;-122.806;2023-04-27T02:13:20;101043.09;;;24.81;35.22
50852;BME280;43953;45.508;-122.806;2023-04-27T02:13:52;101046.97;;;24.80;35.04
50852;BME280;43953;45.508;-122.806;2023-04-27T02:14:23;101047.28;;;24.78;35.53
50852;BME280;43953;45.508;-122.806;2023-04-27T02:14:55;101049.22;;;24.78;35.41
50852;BME280;43953;45.508;-122.806;2023-04-27T02:15:27;101048.69;;;24.75;35.49
50852;BME280;43953;45.508;-122.806;2023-04-27T02:15:59;101051.75;;;24.74;35.56
50852;BME280;43953;45.508;-122.806;2023-04-27T02:16:33;101047.34;;;24.73;35.14
50852;BME280;43953;45.508;-122.806;2023-04-27T02:17:05;101052.34;;;24.71;35.39
50852;BME280;43953;45.508;-122.806;2023-04-27T02:17:37;101047.94;;;24.70;35.59
50852;BME280;43953;45.508;-122.806;2023-04-27T02:18:09;101047.94;;;24.70;35.41
50852;BME280;43953;45.508;-122.806;2023-04-27T02:18:41;101050.16;;;24.68;35.40
50852;BME280;43953;45.508;-122.806;2023-04-27T02:19:13;101044.13;;;24.66;35.66
50852;BME280;43953;45.508;-122.806;2023-04-27T02:19:44;101047.41;;;24.68;35.66
50852;BME280;43953;45.508;-122.806;2023-04-27T02:20:16;101044.94;;;24.66;35.55
50852;BME280;43953;45.508;-122.806;2023-04-27T02:20:48;101046.59;;;24.67;35.53
50852;BME280;43953;45.508;-122.806;2023-04-27T02:21:20;101047.41;;;24.68;35.83
50852;BME280;43953;45.508;-122.806;2023-04-27T02:21:52;101044.94;;;24.66;35.65
50852;BME280;43953;45.508;-122.806;2023-04-27T02:22:23;101048.00;;;24.65;35.63
50852;BME280;43953;45.508;-122.806;2023-04-27T02:22:55;101049.94;;;24.64;35.77
50852;BME280;43953;45.508;-122.806;2023-04-27T02:23:27;101050.22;;;24.63;35.74
50852;BME280;43953;45.508;-122.806;2023-04-27T02:23:59;101054.09;;;24.62;35.61
50852;BME280;43953;45.508;-122.806;2023-04-27T02:24:31;101046.94;;;24.61;35.86
50852;BME280;43953;45.508;-122.806;2023-04-27T02:25:06;101043.69;;;24.59;35.92
50852;BME280;43953;45.508;-122.806;2023-04-27T02:25:38;101049.78;;;24.56;35.61
50852;BME280;43953;45.508;-122.806;2023-04-27T02:26:16;101046.50;;;24.54;36.09
50852;BME280;43953;45.508;-122.806;2023-04-27T02:26:49;101050.38;;;24.52;36.05
50852;BME280;43953;45.508;-122.806;2023-04-27T02:27:21;101052.59;;;24.50;36.11
50852;BME280;43953;45.508;-122.806;2023-04-27T02:27:53;101048.50;;;24.48;36.19
50852;BME280;43953;45.508;-122.806;2023-04-27T02:28:24;101049.31;;;24.48;36.26
50852;BME280;43953;45.508;-122.806;2023-04-27T02:28:56;101047.16;;;24.45;36.19
50852;BME280;43953;45.508;-122.806;2023-04-27T02:29:31;101048.25;;;24.44;36.27
50852;BME280;43953;45.508;-122.806;2023-04-27T02:30:07;101044.97;;;24.42;36.08
50852;BME280;43953;45.508;-122.806;2023-04-27T02:30:39;101048.00;;;24.41;35.97
50852;BME280;43953;45.508;-122.806;2023-04-27T02:31:11;101045.53;;;24.39;36.36
50852;BME280;43953;45.508;-122.806;2023-04-27T02:31:44;101043.91;;;24.38;36.50
50852;BME280;43953;45.508;-122.806;2023-04-27T02:32:15;101045.84;;;24.38;36.49
50852;BME280;43953;45.508;-122.806;2023-04-27T02:32:47;101043.69;;;24.35;36.11
50852;BME280;43953;45.508;-122.806;2023-04-27T02:33:19;101045.31;;;24.36;36.12
50852;BME280;43953;45.508;-122.806;2023-04-27T02:33:51;101042.84;;;24.34;36.14
50852;BME280;43953;45.508;-122.806;2023-04-27T02:34:23;101038.75;;;24.32;36.63
50852;BME280;43953;45.508;-122.806;2023-04-27T02:34:54;101043.44;;;24.31;36.16
50852;BME280;43953;45.508;-122.806;2023-04-27T02:35:27;101045.66;;;24.29;36.33
50852;BME280;43953;45.508;-122.806;2023-04-27T02:35:58;101047.59;;;24.28;36.43
50852;BME280;43953;45.508;-122.806;2023-04-27T02:36:30;101048.69;;;24.27;36.66
50852;BME280;43953;45.508;-122.806;2023-04-27T02:37:02;101047.06;;;24.26;36.59
50852;BME280;43953;45.508;-122.806;2023-04-27T02:37:34;101055.59;;;24.25;36.44
50852;BME280;43953;45.508;-122.806;2023-04-27T02:38:06;101047.94;;;24.22;36.48
50852;BME280;43953;45.508;-122.806;2023-04-27T02:38:38;101055.38;;;24.21;36.75
50852;BME280;43953;45.508;-122.806;2023-04-27T02:39:10;101043.31;;;24.17;36.74
50852;BME280;43953;45.508;-122.806;2023-04-27T02:39:42;101048.53;;;24.19;36.36
50852;BME280;43953;45.508;-122.806;2023-04-27T02:40:13;101049.66;;;24.18;36.77
50852;BME280;43953;45.508;-122.806;2023-04-27T02:40:45;101052.41;;;24.18;36.70
50852;BME280;43953;45.508;-122.806;2023-04-27T02:41:17;101048.00;;;24.17;36.57
50852;BME280;43953;45.508;-122.806;2023-04-27T02:41:49;101048.28;;;24.15;36.79